sensor_id;sensor_type;location;lat;lon;timestamp;temperature;humidity
2603;DHT22;1311;47.966;7.958;2022-08-14T00:00:49;19.30;64.20
2603;DHT22;1311;47.966;7.958;2022-08-14T00:03:20;19.10;65.00
2603;DHT22;1311;47.966;7.958;2022-08-14T00:05:47;19.00;65.50
2603;DHT22;1311;47.966;7.958;2022-08-14T00:08:14;19.00;66.20
2603;DHT22;1311;47.966;7.958;2022-08-14T00:10:41;19.00;67.00
2603;DHT22;1311;47.966;7.958;2022-08-14T00:13:08;18.90;67.40
2603;DHT22;1311;47.966;7.958;2022-08-14T00:15:38;18.90;67.80
2603;DHT22;1311;47.966;7.958;2022-08-14T00:18:07;18.80;67.60
2603;DHT22;1311;47.966;7.958;2022-08-14T00:20:36;18.80;68.30
2603;DHT22;1311;47.966;7.958;2022-08-14T00:23:06;18.70;68.20
2603;DHT22;1311;47.966;7.958;2022-08-14T00:25:34;18.70;68.30
2603;DHT22;1311;47.966;7.958;2022-08-14T00:28:03;18.50;69.30
2603;DHT22;1311;47.966;7.958;2022-08-14T00:30:30;18.50;70.10
2603;DHT22;1311;47.966;7.958;2022-08-14T00:32:58;18.40;70.00
2603;DHT22;1311;47.966;7.958;2022-08-14T00:35:25;18.40;70.90
2603;DHT22;1311;47.966;7.958;2022-08-14T00:37:52;18.30;71.60
2603;DHT22;1311;47.966;7.958;2022-08-14T00:40:20;18.20;72.30
2603;DHT22;1311;47.966;7.958;2022-08-14T00:42:47;18.20;73.00
2603;DHT22;1311;47.966;7.958;2022-08-14T00:45:15;18.20;72.90
2603;DHT22;1311;47.966;7.958;2022-08-14T00:47:44;18.20;73.40
2603;DHT22;1311;47.966;7.958;2022-08-14T00:50:16;18.20;74.20
2603;DHT22;1311;47.966;7.958;2022-08-14T00:52:44;18.10;73.80
2603;DHT22;1311;47.966;7.958;2022-08-14T00:55:11;18.10;74.80
2603;DHT22;1311;47.966;7.958;2022-08-14T00:57:39;18.10;74.70
2603;DHT22;1311;47.966;7.958;2022-08-14T01:00:11;17.90;75.50
2603;DHT22;1311;47.966;7.958;2022-08-14T01:02:40;17.90;76.30
2603;DHT22;1311;47.966;7.958;2022-08-14T01:05:08;17.90;76.20
2603;DHT22;1311;47.966;7.958;2022-08-14T01:07:50;17.80;76.70
2603;DHT22;1311;47.966;7.958;2022-08-14T01:10:19;17.80;76.60
2603;DHT22;1311;47.966;7.958;2022-08-14T01:12:46;17.70;76.60
2603;DHT22;1311;47.966;7.958;2022-08-14T01:15:15;17.60;77.10
2603;DHT22;1311;47.966;7.958;2022-08-14T01:17:46;17.60;77.80
2603;DHT22;1311;47.966;7.958;2022-08-14T01:20:30;17.60;78.10
2603;DHT22;1311;47.966;7.958;2022-08-14T01:23:16;17.50;78.20
2603;DHT22;1311;47.966;7.958;2022-08-14T01:25:43;17.50;79.00
2603;DHT22;1311;47.966;7.958;2022-08-14T01:28:10;17.40;78.40
2603;DHT22;1311;47.966;7.958;2022-08-14T01:30:36;17.30;78.40
2603;DHT22;1311;47.966;7.958;2022-08-14T01:33:04;17.30;78.60
2603;DHT22;1311;47.966;7.958;2022-08-14T01:35:31;17.30;79.20
2603;DHT22;1311;47.966;7.958;2022-08-14T01:37:58;17.30;80.20
2603;DHT22;1311;47.966;7.958;2022-08-14T01:40:27;17.20;79.10
2603;DHT22;1311;47.966;7.958;2022-08-14T01:42:56;17.20;80.00
2603;DHT22;1311;47.966;7.958;2022-08-14T01:45:22;17.20;80.20
2603;DHT22;1311;47.966;7.958;2022-08-14T01:47:49;17.20;80.30
2603;DHT22;1311;47.966;7.958;2022-08-14T01:50:16;17.10;79.90
2603;DHT22;1311;47.966;7.958;2022-08-14T01:52:44;17.10;80.80
2603;DHT22;1311;47.966;7.958;2022-08-14T01:55:12;17.10;81.50
2603;DHT22;1311;47.966;7.958;2022-08-14T01:57:43;17.00;82.20
2603;DHT22;1311;47.966;7.958;2022-08-14T02:00:11;16.90;82.60
2603;DHT22;1311;47.966;7.958;2022-08-14T02:02:40;16.90;82.90
2603;DHT22;1311;47.966;7.958;2022-08-14T02:05:11;16.80;82.80
2603;DHT22;1311;47.966;7.958;2022-08-14T02:07:38;16.80;82.90
2603;DHT22;1311;47.966;7.958;2022-08-14T02:10:06;16.80;83.60
2603;DHT22;1311;47.966;7.958;2022-08-14T02:12:33;16.70;83.20
2603;DHT22;1311;47.966;7.958;2022-08-14T02:15:02;16.70;83.60
2603;DHT22;1311;47.966;7.958;2022-08-14T02:17:32;16.70;84.30
2603;DHT22;1311;47.966;7.958;2022-08-14T02:19:59;16.70;85.30
2603;DHT22;1311;47.966;7.958;2022-08-14T02:22:26;16.60;84.90
2603;DHT22;1311;47.966;7.958;2022-08-14T02:24:53;16.60;85.00
2603;DHT22;1311;47.966;7.958;2022-08-14T02:27:20;16.50;85.90
2603;DHT22;1311;47.966;7.958;2022-08-14T02:29:46;16.50;86.10
2603;DHT22;1311;47.966;7.958;2022-08-14T02:32:14;16.50;85.90
2603;DHT22;1311;47.966;7.958;2022-08-14T02:34:43;16.50;85.90
2603;DHT22;1311;47.966;7.958;2022-08-14T02:37:11;16.50;86.30
2603;DHT22;1311;47.966;7.958;2022-08-14T02:39:39;16.50;86.50
2603;DHT22;1311;47.966;7.958;2022-08-14T02:42:07;16.50;87.30
2603;DHT22;1311;47.966;7.958;2022-08-14T02:44:35;16.50;87.70
2603;DHT22;1311;47.966;7.958;2022-08-14T02:47:04;16.40;86.80
2603;DHT22;1311;47.966;7.958;2022-08-14T02:49:32;16.40;87.40
2603;DHT22;1311;47.966;7.958;2022-08-14T02:51:59;16.40;87.40
2603;DHT22;1311;47.966;7.958;2022-08-14T02:54:26;16.40;87.10
2603;DHT22;1311;47.966;7.958;2022-08-14T02:56:53;16.40;87.90
2603;DHT22;1311;47.966;7.958;2022-08-14T02:59:24;16.40;88.50
2603;DHT22;1311;47.966;7.958;2022-08-14T03:01:53;16.40;88.90
2603;DHT22;1311;47.966;7.958;2022-08-14T03:04:22;16.40;88.60
2603;DHT22;1311;47.966;7.958;2022-08-14T03:06:52;16.40;88.50
2603;DHT22;1311;47.966;7.958;2022-08-14T03:09:19;16.40;88.70
2603;DHT22;1311;47.966;7.958;2022-08-14T03:14:13;16.40;89.30
2603;DHT22;1311;47.966;7.958;2022-08-14T03:16:40;16.40;89.30
2603;DHT22;1311;47.966;7.958;2022-08-14T03:21:35;16.30;89.40
2603;DHT22;1311;47.966;7.958;2022-08-14T03:24:05;16.30;90.00
2603;DHT22;1311;47.966;7.958;2022-08-14T03:26:36;16.30;89.30
2603;DHT22;1311;47.966;7.958;2022-08-14T03:29:04;16.30;89.10
2603;DHT22;1311;47.966;7.958;2022-08-14T03:31:31;16.30;88.60
2603;DHT22;1311;47.966;7.958;2022-08-14T03:33:58;16.30;88.60
2603;DHT22;1311;47.966;7.958;2022-08-14T03:38:52;16.30;86.90
2603;DHT22;1311;47.966;7.958;2022-08-14T03:41:23;16.30;85.50
2603;DHT22;1311;47.966;7.958;2022-08-14T03:43:51;16.40;85.30
2603;DHT22;1311;47.966;7.958;2022-08-14T03:46:20;16.60;86.40
2603;DHT22;1311;47.966;7.958;2022-08-14T03:48:47;16.30;87.20
2603;DHT22;1311;47.966;7.958;2022-08-14T03:53:43;16.30;87.10
2603;DHT22;1311;47.966;7.958;2022-08-14T03:56:12;16.20;86.40
2603;DHT22;1311;47.966;7.958;2022-08-14T03:58:43;16.30;84.90
2603;DHT22;1311;47.966;7.958;2022-08-14T04:01:11;16.30;85.70
2603;DHT22;1311;47.966;7.958;2022-08-14T04:03:38;16.30;84.90
2603;DHT22;1311;47.966;7.958;2022-08-14T04:06:06;16.30;84.10
2603;DHT22;1311;47.966;7.958;2022-08-14T04:08:34;16.30;84.70
2603;DHT22;1311;47.966;7.958;2022-08-14T04:11:01;16.30;84.90
2603;DHT22;1311;47.966;7.958;2022-08-14T04:13:29;16.30;85.90
2603;DHT22;1311;47.966;7.958;2022-08-14T04:15:57;16.30;84.60
2603;DHT22;1311;47.966;7.958;2022-08-14T04:18:24;16.30;82.60
2603;DHT22;1311;47.966;7.958;2022-08-14T04:20:51;16.30;79.90
2603;DHT22;1311;47.966;7.958;2022-08-14T04:23:18;16.30;80.70
2603;DHT22;1311;47.966;7.958;2022-08-14T04:25:45;16.20;79.60
2603;DHT22;1311;47.966;7.958;2022-08-14T04:28:12;16.20;79.00
2603;DHT22;1311;47.966;7.958;2022-08-14T04:30:39;16.30;78.40
2603;DHT22;1311;47.966;7.958;2022-08-14T04:33:07;16.30;78.70
2603;DHT22;1311;47.966;7.958;2022-08-14T04:35:34;16.30;79.40
2603;DHT22;1311;47.966;7.958;2022-08-14T04:38:05;16.30;78.80
2603;DHT22;1311;47.966;7.958;2022-08-14T04:40:50;16.60;79.70
2603;DHT22;1311;47.966;7.958;2022-08-14T04:43:34;16.30;77.40
2603;DHT22;1311;47.966;7.958;2022-08-14T04:46:06;16.40;77.70
2603;DHT22;1311;47.966;7.958;2022-08-14T04:48:34;16.40;77.70
2603;DHT22;1311;47.966;7.958;2022-08-14T04:51:01;16.40;78.90
2603;DHT22;1311;47.966;7.958;2022-08-14T04:53:32;16.40;78.90
2603;DHT22;1311;47.966;7.958;2022-08-14T04:55:59;16.50;79.80
2603;DHT22;1311;47.966;7.958;2022-08-14T04:58:28;16.60;81.50
2603;DHT22;1311;47.966;7.958;2022-08-14T05:00:56;16.70;82.80
2603;DHT22;1311;47.966;7.958;2022-08-14T05:03:25;16.80;83.40
2603;DHT22;1311;47.966;7.958;2022-08-14T05:05:54;17.20;83.60
2603;DHT22;1311;47.966;7.958;2022-08-14T05:08:22;17.60;83.10
2603;DHT22;1311;47.966;7.958;2022-08-14T05:10:50;17.90;82.80
2603;DHT22;1311;47.966;7.958;2022-08-14T05:13:18;18.00;82.90
2603;DHT22;1311;47.966;7.958;2022-08-14T05:15:45;18.70;83.00
2603;DHT22;1311;47.966;7.958;2022-08-14T05:18:13;19.70;82.40
2603;DHT22;1311;47.966;7.958;2022-08-14T05:20:42;20.80;80.40
2603;DHT22;1311;47.966;7.958;2022-08-14T05:23:12;21.30;76.50
2603;DHT22;1311;47.966;7.958;2022-08-14T05:28:08;21.70;72.90
2603;DHT22;1311;47.966;7.958;2022-08-14T05:30:35;22.00;73.30
2603;DHT22;1311;47.966;7.958;2022-08-14T05:33:02;22.30;72.10
2603;DHT22;1311;47.966;7.958;2022-08-14T05:35:28;22.40;70.50
2603;DHT22;1311;47.966;7.958;2022-08-14T05:37:57;22.60;69.70
2603;DHT22;1311;47.966;7.958;2022-08-14T05:40:25;22.90;68.10
2603;DHT22;1311;47.966;7.958;2022-08-14T05:42:52;22.80;65.90
2603;DHT22;1311;47.966;7.958;2022-08-14T05:45:19;22.90;65.90
2603;DHT22;1311;47.966;7.958;2022-08-14T05:47:46;23.30;65.60
2603;DHT22;1311;47.966;7.958;2022-08-14T05:50:13;23.70;64.40
2603;DHT22;1311;47.966;7.958;2022-08-14T05:55:09;24.80;65.10
2603;DHT22;1311;47.966;7.958;2022-08-14T05:57:48;25.40;63.30
2603;DHT22;1311;47.966;7.958;2022-08-14T06:00:17;25.90;60.30
2603;DHT22;1311;47.966;7.958;2022-08-14T06:02:44;26.20;57.60
2603;DHT22;1311;47.966;7.958;2022-08-14T06:05:11;26.30;55.50
2603;DHT22;1311;47.966;7.958;2022-08-14T06:07:38;26.50;54.70
2603;DHT22;1311;47.966;7.958;2022-08-14T06:10:06;26.10;53.60
2603;DHT22;1311;47.966;7.958;2022-08-14T06:12:33;26.10;54.40
2603;DHT22;1311;47.966;7.958;2022-08-14T06:15:02;25.70;54.60
2603;DHT22;1311;47.966;7.958;2022-08-14T06:19:59;25.20;56.70
2603;DHT22;1311;47.966;7.958;2022-08-14T06:24:52;24.50;57.00
2603;DHT22;1311;47.966;7.958;2022-08-14T06:27:19;24.30;58.00
2603;DHT22;1311;47.966;7.958;2022-08-14T06:32:14;23.90;58.80
2603;DHT22;1311;47.966;7.958;2022-08-14T06:34:41;23.60;58.60
2603;DHT22;1311;47.966;7.958;2022-08-14T06:37:08;23.50;57.90
2603;DHT22;1311;47.966;7.958;2022-08-14T06:39:35;23.30;57.90
2603;DHT22;1311;47.966;7.958;2022-08-14T06:44:29;23.30;58.50
2603;DHT22;1311;47.966;7.958;2022-08-14T06:46:56;23.30;58.70
2603;DHT22;1311;47.966;7.958;2022-08-14T06:49:26;23.30;58.50
2603;DHT22;1311;47.966;7.958;2022-08-14T06:51:52;23.30;58.00
2603;DHT22;1311;47.966;7.958;2022-08-14T06:54:20;23.40;58.50
2603;DHT22;1311;47.966;7.958;2022-08-14T06:59:14;23.50;59.30
2603;DHT22;1311;47.966;7.958;2022-08-14T07:01:41;23.50;58.90
2603;DHT22;1311;47.966;7.958;2022-08-14T07:04:26;23.50;58.40
2603;DHT22;1311;47.966;7.958;2022-08-14T07:07:10;23.60;58.40
2603;DHT22;1311;47.966;7.958;2022-08-14T07:09:37;23.60;57.60
2603;DHT22;1311;47.966;7.958;2022-08-14T07:14:31;23.80;57.50
2603;DHT22;1311;47.966;7.958;2022-08-14T07:16:58;23.90;57.20
2603;DHT22;1311;47.966;7.958;2022-08-14T07:19:26;23.90;56.80
2603;DHT22;1311;47.966;7.958;2022-08-14T07:24:21;24.10;55.40
2603;DHT22;1311;47.966;7.958;2022-08-14T07:26:48;24.20;56.10
2603;DHT22;1311;47.966;7.958;2022-08-14T07:29:14;24.20;55.20
2603;DHT22;1311;47.966;7.958;2022-08-14T07:31:41;24.30;55.20
2603;DHT22;1311;47.966;7.958;2022-08-14T07:34:08;24.40;55.10
2603;DHT22;1311;47.966;7.958;2022-08-14T07:36:36;24.50;54.90
2603;DHT22;1311;47.966;7.958;2022-08-14T07:43:57;24.80;54.60
2603;DHT22;1311;47.966;7.958;2022-08-14T07:46:24;24.90;54.40
2603;DHT22;1311;47.966;7.958;2022-08-14T07:48:51;25.10;54.60
2603;DHT22;1311;47.966;7.958;2022-08-14T07:51:18;25.20;54.10
2603;DHT22;1311;47.966;7.958;2022-08-14T07:53:46;25.30;53.00
2603;DHT22;1311;47.966;7.958;2022-08-14T08:01:08;25.50;54.80
2603;DHT22;1311;47.966;7.958;2022-08-14T08:03:38;25.50;54.30
2603;DHT22;1311;47.966;7.958;2022-08-14T08:06:07;25.40;54.20
2603;DHT22;1311;47.966;7.958;2022-08-14T08:08:34;25.40;53.80
2603;DHT22;1311;47.966;7.958;2022-08-14T08:11:02;25.50;53.70
2603;DHT22;1311;47.966;7.958;2022-08-14T08:13:32;25.50;53.90
2603;DHT22;1311;47.966;7.958;2022-08-14T08:15:59;25.60;53.90
2603;DHT22;1311;47.966;7.958;2022-08-14T08:20:55;25.70;53.90
2603;DHT22;1311;47.966;7.958;2022-08-14T08:23:23;25.70;53.10
2603;DHT22;1311;47.966;7.958;2022-08-14T08:25:51;25.70;53.60
2603;DHT22;1311;47.966;7.958;2022-08-14T08:28:21;25.70;52.50
2603;DHT22;1311;47.966;7.958;2022-08-14T08:30:51;25.70;51.90
2603;DHT22;1311;47.966;7.958;2022-08-14T08:33:22;25.80;51.50
2603;DHT22;1311;47.966;7.958;2022-08-14T08:35:50;25.80;52.20
2603;DHT22;1311;47.966;7.958;2022-08-14T08:38:18;26.00;52.00
2603;DHT22;1311;47.966;7.958;2022-08-14T08:40:48;26.00;50.90
2603;DHT22;1311;47.966;7.958;2022-08-14T08:43:18;26.00;50.60
2603;DHT22;1311;47.966;7.958;2022-08-14T08:45:53;26.00;51.80
2603;DHT22;1311;47.966;7.958;2022-08-14T08:48:21;26.00;52.50
2603;DHT22;1311;47.966;7.958;2022-08-14T08:50:48;25.90;52.20
2603;DHT22;1311;47.966;7.958;2022-08-14T08:53:15;25.90;52.10
2603;DHT22;1311;47.966;7.958;2022-08-14T08:55:44;25.80;51.70
2603;DHT22;1311;47.966;7.958;2022-08-14T08:58:13;25.80;51.30
2603;DHT22;1311;47.966;7.958;2022-08-14T09:00:41;25.70;51.20
2603;DHT22;1311;47.966;7.958;2022-08-14T09:13:22;26.00;49.20
2603;DHT22;1311;47.966;7.958;2022-08-14T09:15:52;26.10;48.60
2603;DHT22;1311;47.966;7.958;2022-08-14T09:18:21;26.20;48.20
2603;DHT22;1311;47.966;7.958;2022-08-14T09:20:52;26.20;48.70
2603;DHT22;1311;47.966;7.958;2022-08-14T09:23:20;26.30;48.00
2603;DHT22;1311;47.966;7.958;2022-08-14T09:25:48;26.30;47.00
2603;DHT22;1311;47.966;7.958;2022-08-14T09:28:17;26.40;47.90
2603;DHT22;1311;47.966;7.958;2022-08-14T09:30:48;26.80;46.80
2603;DHT22;1311;47.966;7.958;2022-08-14T09:33:35;26.90;46.40
2603;DHT22;1311;47.966;7.958;2022-08-14T09:36:24;26.90;46.80
2603;DHT22;1311;47.966;7.958;2022-08-14T09:39:00;26.90;46.20
2603;DHT22;1311;47.966;7.958;2022-08-14T09:41:36;27.10;46.10
2603;DHT22;1311;47.966;7.958;2022-08-14T09:44:15;27.10;46.30
2603;DHT22;1311;47.966;7.958;2022-08-14T09:46:51;27.20;45.90
2603;DHT22;1311;47.966;7.958;2022-08-14T09:49:29;27.20;45.20
2603;DHT22;1311;47.966;7.958;2022-08-14T09:52:03;27.30;44.50
2603;DHT22;1311;47.966;7.958;2022-08-14T09:54:35;27.30;44.30
2603;DHT22;1311;47.966;7.958;2022-08-14T09:57:03;27.30;43.90
2603;DHT22;1311;47.966;7.958;2022-08-14T09:59:39;27.40;44.20
2603;DHT22;1311;47.966;7.958;2022-08-14T10:02:18;27.40;43.60
2603;DHT22;1311;47.966;7.958;2022-08-14T10:05:01;27.60;42.60
2603;DHT22;1311;47.966;7.958;2022-08-14T10:07:32;27.60;43.10
2603;DHT22;1311;47.966;7.958;2022-08-14T10:09:59;27.70;42.60
2603;DHT22;1311;47.966;7.958;2022-08-14T10:12:43;27.70;41.90
2603;DHT22;1311;47.966;7.958;2022-08-14T10:15:15;27.70;41.30
2603;DHT22;1311;47.966;7.958;2022-08-14T10:17:42;27.80;41.10
2603;DHT22;1311;47.966;7.958;2022-08-14T10:20:12;27.80;41.70
2603;DHT22;1311;47.966;7.958;2022-08-14T10:22:39;27.70;41.20
2603;DHT22;1311;47.966;7.958;2022-08-14T10:25:11;27.80;41.70
2603;DHT22;1311;47.966;7.958;2022-08-14T10:27:40;27.90;42.00
2603;DHT22;1311;47.966;7.958;2022-08-14T10:30:16;27.90;41.50
2603;DHT22;1311;47.966;7.958;2022-08-14T10:32:44;28.00;40.90
2603;DHT22;1311;47.966;7.958;2022-08-14T10:35:14;28.10;40.70
2603;DHT22;1311;47.966;7.958;2022-08-14T10:37:45;28.20;41.00
2603;DHT22;1311;47.966;7.958;2022-08-14T10:40:14;28.30;40.30
2603;DHT22;1311;47.966;7.958;2022-08-14T10:42:42;28.20;39.80
2603;DHT22;1311;47.966;7.958;2022-08-14T10:45:18;28.20;40.00
2603;DHT22;1311;47.966;7.958;2022-08-14T10:47:49;28.20;40.40
2603;DHT22;1311;47.966;7.958;2022-08-14T10:50:28;28.40;40.70
2603;DHT22;1311;47.966;7.958;2022-08-14T10:52:56;28.60;41.50
2603;DHT22;1311;47.966;7.958;2022-08-14T10:55:30;28.60;41.00
2603;DHT22;1311;47.966;7.958;2022-08-14T10:57:58;28.60;40.80
2603;DHT22;1311;47.966;7.958;2022-08-14T11:00:26;28.60;41.20
2603;DHT22;1311;47.966;7.958;2022-08-14T11:02:59;28.50;41.40
2603;DHT22;1311;47.966;7.958;2022-08-14T11:05:38;28.60;41.70
2603;DHT22;1311;47.966;7.958;2022-08-14T11:08:07;28.60;41.70
2603;DHT22;1311;47.966;7.958;2022-08-14T11:10:41;28.70;42.00
2603;DHT22;1311;47.966;7.958;2022-08-14T11:13:13;28.80;42.00
2603;DHT22;1311;47.966;7.958;2022-08-14T11:15:41;28.90;41.60
2603;DHT22;1311;47.966;7.958;2022-08-14T11:18:10;28.90;41.60
2603;DHT22;1311;47.966;7.958;2022-08-14T11:20:42;29.10;41.80
2603;DHT22;1311;47.966;7.958;2022-08-14T11:23:14;29.20;41.90
2603;DHT22;1311;47.966;7.958;2022-08-14T11:25:44;29.30;41.50
2603;DHT22;1311;47.966;7.958;2022-08-14T11:28:12;29.40;41.40
2603;DHT22;1311;47.966;7.958;2022-08-14T11:30:41;29.60;43.10
2603;DHT22;1311;47.966;7.958;2022-08-14T11:33:09;29.60;57.80
2603;DHT22;1311;47.966;7.958;2022-08-14T11:35:36;29.60;58.60
2603;DHT22;1311;47.966;7.958;2022-08-14T11:38:06;29.60;59.10
2603;DHT22;1311;47.966;7.958;2022-08-14T11:40:35;29.70;59.70
2603;DHT22;1311;47.966;7.958;2022-08-14T11:43:07;29.60;61.00
2603;DHT22;1311;47.966;7.958;2022-08-14T11:45:36;29.60;60.60
2603;DHT22;1311;47.966;7.958;2022-08-14T11:48:14;29.80;60.10
2603;DHT22;1311;47.966;7.958;2022-08-14T11:50:41;30.10;59.60
2603;DHT22;1311;47.966;7.958;2022-08-14T11:53:20;29.80;58.40
2603;DHT22;1311;47.966;7.958;2022-08-14T11:55:54;30.10;57.50
2603;DHT22;1311;47.966;7.958;2022-08-14T11:58:25;30.10;57.80
2603;DHT22;1311;47.966;7.958;2022-08-14T12:00:54;30.40;60.10
2603;DHT22;1311;47.966;7.958;2022-08-14T12:03:34;30.40;60.80
2603;DHT22;1311;47.966;7.958;2022-08-14T12:06:06;30.50;60.10
2603;DHT22;1311;47.966;7.958;2022-08-14T12:08:35;30.40;60.20
2603;DHT22;1311;47.966;7.958;2022-08-14T12:11:03;30.50;59.60
2603;DHT22;1311;47.966;7.958;2022-08-14T12:13:31;30.40;59.20
2603;DHT22;1311;47.966;7.958;2022-08-14T12:16:01;30.40;59.20
2603;DHT22;1311;47.966;7.958;2022-08-14T12:18:29;30.20;59.80
2603;DHT22;1311;47.966;7.958;2022-08-14T12:21:10;30.30;60.10
2603;DHT22;1311;47.966;7.958;2022-08-14T12:23:39;30.10;59.80
2603;DHT22;1311;47.966;7.958;2022-08-14T12:26:07;30.20;60.50
2603;DHT22;1311;47.966;7.958;2022-08-14T12:28:35;29.90;60.50
2603;DHT22;1311;47.966;7.958;2022-08-14T12:31:11;29.80;61.50
2603;DHT22;1311;47.966;7.958;2022-08-14T12:33:41;29.80;62.00
2603;DHT22;1311;47.966;7.958;2022-08-14T12:36:18;29.60;62.90
2603;DHT22;1311;47.966;7.958;2022-08-14T12:38:48;29.50;63.70
2603;DHT22;1311;47.966;7.958;2022-08-14T12:41:18;29.50;64.40
2603;DHT22;1311;47.966;7.958;2022-08-14T12:43:48;29.50;64.40
2603;DHT22;1311;47.966;7.958;2022-08-14T12:46:27;29.40;64.50
2603;DHT22;1311;47.966;7.958;2022-08-14T12:48:56;29.50;65.00
2603;DHT22;1311;47.966;7.958;2022-08-14T12:51:24;29.50;64.50
2603;DHT22;1311;47.966;7.958;2022-08-14T12:53:54;29.60;64.30
2603;DHT22;1311;47.966;7.958;2022-08-14T12:56:22;29.80;64.40
2603;DHT22;1311;47.966;7.958;2022-08-14T12:58:52;29.90;64.00
2603;DHT22;1311;47.966;7.958;2022-08-14T13:01:21;30.20;63.30
2603;DHT22;1311;47.966;7.958;2022-08-14T13:03:50;30.60;62.80
2603;DHT22;1311;47.966;7.958;2022-08-14T13:06:17;30.80;61.00
2603;DHT22;1311;47.966;7.958;2022-08-14T13:08:44;30.70;60.60
2603;DHT22;1311;47.966;7.958;2022-08-14T13:11:14;30.90;60.40
2603;DHT22;1311;47.966;7.958;2022-08-14T13:13:43;30.80;59.50
2603;DHT22;1311;47.966;7.958;2022-08-14T13:16:11;30.50;59.30
2603;DHT22;1311;47.966;7.958;2022-08-14T13:18:42;30.40;59.50
2603;DHT22;1311;47.966;7.958;2022-08-14T13:21:11;30.50;59.60
2603;DHT22;1311;47.966;7.958;2022-08-14T13:23:40;30.40;58.80
2603;DHT22;1311;47.966;7.958;2022-08-14T13:26:11;30.40;58.60
2603;DHT22;1311;47.966;7.958;2022-08-14T13:28:40;30.10;56.00
2603;DHT22;1311;47.966;7.958;2022-08-14T13:31:11;30.10;55.80
2603;DHT22;1311;47.966;7.958;2022-08-14T13:33:39;30.10;54.90
2603;DHT22;1311;47.966;7.958;2022-08-14T13:36:07;29.90;54.10
2603;DHT22;1311;47.966;7.958;2022-08-14T13:38:34;29.60;53.10
2603;DHT22;1311;47.966;7.958;2022-08-14T13:41:02;29.70;51.60
2603;DHT22;1311;47.966;7.958;2022-08-14T13:43:30;29.70;52.00
2603;DHT22;1311;47.966;7.958;2022-08-14T13:45:59;29.70;51.50
2603;DHT22;1311;47.966;7.958;2022-08-14T13:48:27;29.70;50.30
2603;DHT22;1311;47.966;7.958;2022-08-14T13:50:55;29.80;49.60
2603;DHT22;1311;47.966;7.958;2022-08-14T13:53:23;29.80;50.20
2603;DHT22;1311;47.966;7.958;2022-08-14T13:55:51;29.70;50.30
2603;DHT22;1311;47.966;7.958;2022-08-14T13:58:20;29.70;50.20
2603;DHT22;1311;47.966;7.958;2022-08-14T14:00:49;29.70;50.70
2603;DHT22;1311;47.966;7.958;2022-08-14T14:03:19;29.80;51.20
2603;DHT22;1311;47.966;7.958;2022-08-14T14:05:49;29.80;50.90
2603;DHT22;1311;47.966;7.958;2022-08-14T14:08:19;29.70;50.40
2603;DHT22;1311;47.966;7.958;2022-08-14T14:10:47;29.60;50.20
2603;DHT22;1311;47.966;7.958;2022-08-14T14:13:15;29.60;50.30
2603;DHT22;1311;47.966;7.958;2022-08-14T14:15:43;29.60;50.20
2603;DHT22;1311;47.966;7.958;2022-08-14T14:18:10;29.70;50.30
2603;DHT22;1311;47.966;7.958;2022-08-14T14:20:42;29.60;49.60
2603;DHT22;1311;47.966;7.958;2022-08-14T14:23:11;29.60;49.00
2603;DHT22;1311;47.966;7.958;2022-08-14T14:25:42;29.70;49.60
2603;DHT22;1311;47.966;7.958;2022-08-14T14:28:13;29.90;50.30
2603;DHT22;1311;47.966;7.958;2022-08-14T14:30:44;29.90;49.40
2603;DHT22;1311;47.966;7.958;2022-08-14T14:33:13;30.00;49.00
2603;DHT22;1311;47.966;7.958;2022-08-14T14:35:44;30.00;48.10
2603;DHT22;1311;47.966;7.958;2022-08-14T14:38:15;29.90;48.10
2603;DHT22;1311;47.966;7.958;2022-08-14T14:40:43;29.80;48.10
2603;DHT22;1311;47.966;7.958;2022-08-14T14:43:11;29.70;48.40
2603;DHT22;1311;47.966;7.958;2022-08-14T14:45:39;29.40;48.20
2603;DHT22;1311;47.966;7.958;2022-08-14T14:48:08;29.30;48.70
2603;DHT22;1311;47.966;7.958;2022-08-14T14:50:35;29.30;49.20
2603;DHT22;1311;47.966;7.958;2022-08-14T14:53:05;29.30;49.70
2603;DHT22;1311;47.966;7.958;2022-08-14T14:55:32;29.40;49.80
2603;DHT22;1311;47.966;7.958;2022-08-14T14:57:59;29.50;49.40
2603;DHT22;1311;47.966;7.958;2022-08-14T15:00:26;29.60;49.10
2603;DHT22;1311;47.966;7.958;2022-08-14T15:02:53;29.60;47.70
2603;DHT22;1311;47.966;7.958;2022-08-14T15:05:22;29.50;45.80
2603;DHT22;1311;47.966;7.958;2022-08-14T15:07:50;29.50;44.80
2603;DHT22;1311;47.966;7.958;2022-08-14T15:10:19;29.50;44.20
2603;DHT22;1311;47.966;7.958;2022-08-14T15:15:14;29.30;43.10
2603;DHT22;1311;47.966;7.958;2022-08-14T15:17:41;29.20;42.60
2603;DHT22;1311;47.966;7.958;2022-08-14T15:20:11;29.20;42.30
2603;DHT22;1311;47.966;7.958;2022-08-14T15:22:39;29.20;42.00
2603;DHT22;1311;47.966;7.958;2022-08-14T15:25:07;29.20;41.60
2603;DHT22;1311;47.966;7.958;2022-08-14T15:27:36;29.20;41.20
2603;DHT22;1311;47.966;7.958;2022-08-14T15:30:05;29.10;40.40
2603;DHT22;1311;47.966;7.958;2022-08-14T15:32:33;29.00;40.10
2603;DHT22;1311;47.966;7.958;2022-08-14T15:35:00;28.90;40.10
2603;DHT22;1311;47.966;7.958;2022-08-14T15:37:29;29.00;40.10
2603;DHT22;1311;47.966;7.958;2022-08-14T15:39:56;29.10;40.10
2603;DHT22;1311;47.966;7.958;2022-08-14T15:42:23;29.20;40.30
2603;DHT22;1311;47.966;7.958;2022-08-14T15:44:51;29.10;39.70
2603;DHT22;1311;47.966;7.958;2022-08-14T15:47:19;29.00;39.60
2603;DHT22;1311;47.966;7.958;2022-08-14T15:49:47;29.00;40.10
2603;DHT22;1311;47.966;7.958;2022-08-14T15:52:14;28.90;40.70
2603;DHT22;1311;47.966;7.958;2022-08-14T15:57:09;28.60;41.30
2603;DHT22;1311;47.966;7.958;2022-08-14T15:59:36;28.40;41.80
2603;DHT22;1311;47.966;7.958;2022-08-14T16:02:22;28.20;42.60
2603;DHT22;1311;47.966;7.958;2022-08-14T16:07:19;28.00;44.10
2603;DHT22;1311;47.966;7.958;2022-08-14T16:09:45;27.90;44.80
2603;DHT22;1311;47.966;7.958;2022-08-14T16:12:12;27.70;45.10
2603;DHT22;1311;47.966;7.958;2022-08-14T16:14:39;27.50;46.00
2603;DHT22;1311;47.966;7.958;2022-08-14T16:17:06;27.30;46.50
2603;DHT22;1311;47.966;7.958;2022-08-14T16:19:35;27.20;46.70
2603;DHT22;1311;47.966;7.958;2022-08-14T16:22:08;27.10;47.10
2603;DHT22;1311;47.966;7.958;2022-08-14T16:24:37;27.10;47.20
2603;DHT22;1311;47.966;7.958;2022-08-14T16:27:05;27.00;47.50
2603;DHT22;1311;47.966;7.958;2022-08-14T16:29:35;26.90;47.30
2603;DHT22;1311;47.966;7.958;2022-08-14T16:32:03;27.00;47.20
2603;DHT22;1311;47.966;7.958;2022-08-14T16:34:30;26.90;47.80
2603;DHT22;1311;47.966;7.958;2022-08-14T16:37:00;26.80;47.80
2603;DHT22;1311;47.966;7.958;2022-08-14T16:39:29;26.80;47.80
2603;DHT22;1311;47.966;7.958;2022-08-14T16:41:58;26.70;47.90
2603;DHT22;1311;47.966;7.958;2022-08-14T16:44:25;26.70;48.10
2603;DHT22;1311;47.966;7.958;2022-08-14T16:47:05;26.70;48.10
2603;DHT22;1311;47.966;7.958;2022-08-14T16:49:32;26.70;48.20
2603;DHT22;1311;47.966;7.958;2022-08-14T16:52:03;26.70;48.50
2603;DHT22;1311;47.966;7.958;2022-08-14T16:54:30;26.70;48.80
2603;DHT22;1311;47.966;7.958;2022-08-14T16:57:14;26.70;49.40
2603;DHT22;1311;47.966;7.958;2022-08-14T16:59:42;26.70;50.10
2603;DHT22;1311;47.966;7.958;2022-08-14T17:02:09;26.60;50.40
2603;DHT22;1311;47.966;7.958;2022-08-14T17:04:36;26.60;50.10
2603;DHT22;1311;47.966;7.958;2022-08-14T17:07:07;26.60;50.10
2603;DHT22;1311;47.966;7.958;2022-08-14T17:09:37;26.50;49.70
2603;DHT22;1311;47.966;7.958;2022-08-14T17:12:08;26.50;50.10
2603;DHT22;1311;47.966;7.958;2022-08-14T17:14:57;26.40;50.60
2603;DHT22;1311;47.966;7.958;2022-08-14T17:17:42;26.40;51.00